Time;durP1;ratioP1;P1;durP2;ratioP2;P2;SDS_P1;SDS_P2;PMS_P1;PMS_P2;Temp;Humidity;BMP_temperature;BMP_pressure;BME280_temperature;BME280_humidity;BME280_pressure;Samples;Min_cycle;Max_cycle;Signal;HPM_P1;HPM_P2
2022/05/05 00:00:58;;;;;;;2.53;1.10;;;;;;;;;;2097467;28;20293;-48
2022/05/05 00:02:00;;;;;;;1.52;0.80;;;;;;;;;;2097467;28;20044;-47
2022/05/05 00:03:01;;;;;;;4.95;1.10;;;;;;;;;;2097401;28;20444;-47
2022/05/05 00:04:02;;;;;;;2.10;0.90;;;;;;;;;;2097426;28;20040;-48
2022/05/05 00:05:04;;;;;;;4.35;0.90;;;;;;;;;;2097316;28;20302;-47
2022/05/05 00:06:05;;;;;;;2.30;0.90;;;;;;;;;;2097331;28;20045;-48
2022/05/05 00:07:07;;;;;;;3.10;1.45;;;;;;;;;;2097323;28;20043;-49
2022/05/05 00:08:09;;;;;;;2.10;1.50;;;;;;;;;;2097389;28;20506;-48
2022/05/05 00:09:09;;;;;;;2.00;1.45;;;;;;;;;;2097337;28;20404;-47
2022/05/05 00:15:25;;;;;;;5.03;1.25;;;;;;;;;;2097458;28;20044;-48
2022/05/05 00:16:27;;;;;;;1.98;0.90;;;;;;;;;;2097527;28;20049;-47
2022/05/05 00:17:28;;;;;;;1.15;0.77;;;;;;;;;;2097278;28;20060;-48
2022/05/05 00:18:29;;;;;;;2.15;0.68;;;;;;;;;;2096954;28;20381;-48
2022/05/05 00:19:32;;;;;;;2.03;1.00;;;;;;;;;;2097608;28;20071;-59
2022/05/05 00:20:33;;;;;;;2.28;1.02;;;;;;;;;;2097237;28;20086;-59
2022/05/05 00:21:35;;;;;;;1.45;0.85;;;;;;;;;;2097628;28;20555;-59
2022/05/05 00:22:36;;;;;;;2.72;1.10;;;;;;;;;;2097282;28;20498;-59
2022/05/05 00:23:37;;;;;;;1.98;1.00;;;;;;;;;;2097251;28;20140;-58
2022/05/05 00:24:38;;;;;;;2.15;1.40;;;;;;;;;;2097377;28;20056;-58
2022/05/05 00:25:40;;;;;;;2.03;1.10;;;;;;;;;;2097323;28;20135;-59
2022/05/05 00:26:41;;;;;;;1.02;0.80;;;;;;;;;;2097365;28;20097;-59
2022/05/05 00:27:42;;;;;;;1.98;0.88;;;;;;;;;;2097395;28;20127;-59
2022/05/05 00:28:43;;;;;;;4.25;1.00;;;;;;;;;;2097288;28;20056;-59
2022/05/05 00:29:44;;;;;;;2.15;1.00;;;;;;;;;;2097231;28;20044;-58
2022/05/05 00:30:45;;;;;;;1.95;1.23;;;;;;;;;;2097524;28;20407;-59
2022/05/05 00:31:46;;;;;;;3.28;1.20;;;;;;;;;;2097224;28;20045;-59
2022/05/05 00:32:48;;;;;;;1.90;1.13;;;;;;;;;;2097373;28;20056;-59
2022/05/05 00:33:49;;;;;;;1.92;0.98;;;;;;;;;;2097167;28;20053;-59
2022/05/05 00:34:50;;;;;;;2.58;0.95;;;;;;;;;;2097218;28;20037;-58
2022/05/05 00:35:51;;;;;;;1.77;1.05;;;;;;;;;;2097242;28;20170;-59
2022/05/05 00:36:52;;;;;;;2.63;1.30;;;;;;;;;;2097192;28;20190;-59
2022/05/05 00:37:53;;;;;;;2.05;1.02;;;;;;;;;;2097247;28;20045;-59
2022/05/05 00:38:55;;;;;;;2.13;1.20;;;;;;;;;;2097239;28;20040;-58
2022/05/05 00:39:55;;;;;;;1.83;1.08;;;;;;;;;;2097504;28;20213;-51
2022/05/05 00:40:57;;;;;;;1.38;0.80;;;;;;;;;;2097231;28;20110;-50
2022/05/05 00:41:58;;;;;;;2.33;0.90;;;;;;;;;;2097234;28;20565;-49
2022/05/05 00:43:00;;;;;;;2.45;1.15;;;;;;;;;;2098246;28;20049;-49
2022/05/05 00:44:02;;;;;;;1.90;0.80;;;;;;;;;;2100047;28;20048;-50
2022/05/05 00:45:03;;;;;;;1.63;0.90;;;;;;;;;;2099675;28;20044;-50
2022/05/05 00:46:05;;;;;;;3.35;0.88;;;;;;;;;;2099929;28;20060;-48
2022/05/05 00:47:06;;;;;;;2.05;0.90;;;;;;;;;;2099967;28;20048;-50
2022/05/05 00:48:08;;;;;;;1.35;0.90;;;;;;;;;;2099934;28;20040;-48
2022/05/05 00:49:09;;;;;;;2.25;1.05;;;;;;;;;;2099696;28;20139;-48
2022/05/05 00:50:11;;;;;;;4.22;1.05;;;;;;;;;;2099876;28;20123;-48
2022/05/05 00:51:12;;;;;;;;;;;;;;;;;;2100467;28;20050;-49
2022/05/05 00:52:13;;;;;;;1.58;1.00;;;;;;;;;;2099844;28;19924;-49
2022/05/05 00:53:15;;;;;;;2.72;0.93;;;;;;;;;;2099991;28;20067;-48
2022/05/05 00:54:16;;;;;;;2.83;1.80;;;;;;;;;;2099775;28;20155;-48
2022/05/05 00:55:17;;;;;;;3.20;1.20;;;;;;;;;;2100202;28;20053;-49
2022/05/05 00:56:19;;;;;;;2.63;1.00;;;;;;;;;;2099882;28;20060;-48
2022/05/05 00:57:20;;;;;;;1.65;1.05;;;;;;;;;;2100005;28;20055;-51
2022/05/05 00:58:22;;;;;;;1.35;0.90;;;;;;;;;;2099892;28;20158;-48
2022/05/05 00:59:23;;;;;;;2.95;1.13;;;;;;;;;;2099868;28;20137;-48
2022/05/05 01:00:24;;;;;;;2.63;1.10;;;;;;;;;;2100379;28;20135;-58
2022/05/05 01:01:25;;;;;;;2.78;1.10;;;;;;;;;;2099932;28;20044;-58
2022/05/05 01:02:26;;;;;;;1.75;1.00;;;;;;;;;;2099911;28;20132;-59
2022/05/05 01:03:28;;;;;;;1.70;1.20;;;;;;;;;;2099686;28;20044;-58
2022/05/05 01:04:29;;;;;;;1.25;0.82;;;;;;;;;;2100146;28;20147;-58
2022/05/05 01:05:32;;;;;;;1.70;1.10;;;;;;;;;;2099785;28;20097;-59
2022/05/05 01:06:33;;;;;;;1.48;1.00;;;;;;;;;;2099939;28;20080;-59
2022/05/05 01:07:39;;;;;;;1.98;1.10;;;;;;;;;;2099919;28;20091;-59
2022/05/05 01:08:42;;;;;;;2.85;1.30;;;;;;;;;;2099714;28;20048;-59
2022/05/05 01:09:43;;;;;;;2.80;1.20;;;;;;;;;;2099687;28;20483;-59
2022/05/05 01:10:44;;;;;;;2.45;1.02;;;;;;;;;;2099959;28;20097;-58
2022/05/05 01:11:45;;;;;;;2.38;1.08;;;;;;;;;;2099903;28;20455;-58
2022/05/05 01:12:51;;;;;;;2.67;1.13;;;;;;;;;;2099970;28;20068;-59
2022/05/05 01:13:53;;;;;;;2.00;0.90;;;;;;;;;;2099779;28;20132;-58
2022/05/05 01:14:54;;;;;;;2.00;1.10;;;;;;;;;;2099783;28;20543;-58
2022/05/05 01:15:55;;;;;;;1.73;1.07;;;;;;;;;;2099881;28;20072;-58
2022/05/05 01:16:58;;;;;;;2.28;1.33;;;;;;;;;;2099828;28;20187;-47
2022/05/05 01:17:59;;;;;;;2.75;0.95;;;;;;;;;;2099837;28;20063;-49
2022/05/05 01:19:00;;;;;;;3.05;1.30;;;;;;;;;;2099435;28;20489;-49
2022/05/05 01:20:09;;;;;;;2.97;1.00;;;;;;;;;;2099699;28;20048;-50
2022/05/05 01:21:10;;;;;;;2.72;1.20;;;;;;;;;;2099675;28;20141;-47
2022/05/05 01:22:12;;;;;;;2.95;1.20;;;;;;;;;;2099818;28;20048;-48
2022/05/05 01:23:13;;;;;;;2.03;1.05;;;;;;;;;;2099660;28;20596;-49
2022/05/05 01:24:15;;;;;;;2.45;1.20;;;;;;;;;;2099772;28;20083;-48
2022/05/05 01:28:14;;;;;;;1.40;1.05;;;;;;;;;;2099749;28;20500;-47
2022/05/05 01:29:16;;;;;;;1.83;0.90;;;;;;;;;;2099686;28;20697;-49
2022/05/05 01:30:16;;;;;;;;;;;;;;;;;;2100153;28;20131;-48
2022/05/05 01:31:17;;;;;;;2.20;0.93;;;;;;;;;;2099766;28;19928;-47
2022/05/05 01:32:18;;;;;;;1.95;1.13;;;;;;;;;;2099628;28;20048;-48
2022/05/05 01:33:20;;;;;;;3.35;1.17;;;;;;;;;;2099734;28;20048;-48
2022/05/05 01:34:21;;;;;;;;;;;;;;;;;;2100081;28;20048;-47
2022/05/05 01:35:22;;;;;;;1.35;0.90;;;;;;;;;;2099649;28;19921;-50
2022/05/05 01:36:23;;;;;;;1.58;1.02;;;;;;;;;;2099684;28;20044;-47
2022/05/05 01:37:25;;;;;;;1.70;1.00;;;;;;;;;;2099736;28;20048;-50
2022/05/05 01:38:30;;;;;;;3.47;1.05;;;;;;;;;;2099759;28;20104;-48
2022/05/05 01:39:31;;;;;;;2.35;1.00;;;;;;;;;;2099562;28;20139;-48
2022/05/05 01:40:32;;;;;;;1.30;0.90;;;;;;;;;;2099554;28;20052;-50
2022/05/05 01:41:36;;;;;;;1.33;1.10;;;;;;;;;;2099671;28;20048;-48
2022/05/05 01:42:38;;;;;;;2.25;1.00;;;;;;;;;;2099688;28;20128;-49
2022/05/05 01:43:40;;;;;;;2.70;0.98;;;;;;;;;;2099503;28;20135;-49
2022/05/05 01:44:41;;;;;;;1.23;0.90;;;;;;;;;;2099592;28;20405;-47
2022/05/05 01:45:43;;;;;;;2.15;1.13;;;;;;;;;;2107078;28;20052;-47
2022/05/05 01:46:45;;;;;;;2.78;1.35;;;;;;;;;;2107981;28;20078;-48
2022/05/05 01:47:46;;;;;;;3.42;1.20;;;;;;;;;;2108105;28;20134;-47
2022/05/05 01:48:47;;;;;;;2.07;1.07;;;;;;;;;;2108116;28;20126;-47
2022/05/05 01:49:48;;;;;;;3.28;1.33;;;;;;;;;;2108144;28;20288;-48
2022/05/05 01:50:49;;;;;;;2.75;1.17;;;;;;;;;;2107927;28;20134;-48
2022/05/05 01:51:50;;;;;;;1.77;0.85;;;;;;;;;;2107979;28;20076;-48
2022/05/05 01:52:52;;;;;;;2.63;1.43;;;;;;;;;;2101491;28;20124;-50
2022/05/05 01:53:53;;;;;;;;;;;;;;;;;;2099994;28;20376;-49
2022/05/05 01:54:54;;;;;;;2.97;1.25;;;;;;;;;;2097141;28;19927;-50
2022/05/05 01:55:56;;;;;;;3.08;1.00;;;;;;;;;;2098193;28;20418;-48
2022/05/05 01:56:56;;;;;;;1.70;1.17;;;;;;;;;;2098090;28;20481;-49
2022/05/05 01:57:58;;;;;;;2.40;1.27;;;;;;;;;;2098233;28;20098;-47
2022/05/05 01:58:59;;;;;;;2.78;1.25;;;;;;;;;;2098176;28;20052;-51
2022/05/05 02:00:00;;;;;;;3.67;1.38;;;;;;;;;;2098346;28;20072;-48
2022/05/05 02:01:01;;;;;;;3.50;1.20;;;;;;;;;;2098261;28;20133;-48
2022/05/05 02:02:03;;;;;;;1.48;1.02;;;;;;;;;;2098356;28;20048;-58
2022/05/05 02:03:12;;;;;;;;;;;;;;;;;;2098626;28;20052;-58
2022/05/05 02:04:13;;;;;;;1.75;0.98;;;;;;;;;;2098153;28;20022;-58
2022/05/05 02:05:14;;;;;;;2.20;0.95;;;;;;;;;;2098339;28;20131;-58
2022/05/05 02:06:16;;;;;;;2.83;1.10;;;;;;;;;;2098269;28;20505;-57
2022/05/05 02:07:17;;;;;;;3.90;1.23;;;;;;;;;;2098245;28;20059;-58
2022/05/05 02:08:18;;;;;;;2.42;1.25;;;;;;;;;;2098250;28;20049;-58
2022/05/05 02:09:19;;;;;;;2.90;0.95;;;;;;;;;;2098249;28;20103;-58
2022/05/05 02:10:21;;;;;;;1.83;0.85;;;;;;;;;;2098289;28;20092;-58
2022/05/05 02:11:22;;;;;;;3.03;1.25;;;;;;;;;;2098245;28;20123;-58
2022/05/05 02:12:23;;;;;;;3.35;1.20;;;;;;;;;;2098134;28;20098;-58
2022/05/05 02:13:24;;;;;;;2.88;1.20;;;;;;;;;;2098104;28;20588;-58
2022/05/05 02:14:25;;;;;;;2.97;1.23;;;;;;;;;;2098203;28;20060;-58
2022/05/05 02:15:27;;;;;;;2.53;1.42;;;;;;;;;;2098129;28;20072;-58
2022/05/05 02:16:28;;;;;;;;;;;;;;;;;;2098583;28;20124;-58
2022/05/05 02:17:29;;;;;;;2.72;1.33;;;;;;;;;;2098071;28;19947;-58
2022/05/05 02:18:31;;;;;;;1.83;0.95;;;;;;;;;;2098001;28;20072;-58
2022/05/05 02:19:32;;;;;;;3.75;1.08;;;;;;;;;;2098212;28;20490;-47
2022/05/05 02:20:33;;;;;;;1.90;1.20;;;;;;;;;;2098229;28;20055;-48
2022/05/05 02:21:34;;;;;;;2.15;1.30;;;;;;;;;;2098123;28;20127;-48
2022/05/05 02:22:35;;;;;;;3.07;1.27;;;;;;;;;;2098045;28;20479;-48
2022/05/05 02:23:36;;;;;;;2.03;1.10;;;;;;;;;;2098107;28;20059;-48
2022/05/05 02:24:38;;;;;;;2.33;1.13;;;;;;;;;;2098057;28;20131;-50
2022/05/05 02:25:39;;;;;;;2.33;1.70;;;;;;;;;;2098213;28;20096;-58
2022/05/05 02:26:41;;;;;;;3.87;1.33;;;;;;;;;;2097926;28;20132;-58
2022/05/05 02:27:45;;;;;;;1.67;1.30;;;;;;;;;;2098153;28;20072;-58
2022/05/05 02:28:49;;;;;;;2.50;1.40;;;;;;;;;;2098004;28;20050;-58
2022/05/05 02:29:50;;;;;;;2.42;1.10;;;;;;;;;;2098150;28;20049;-58
2022/05/05 02:30:52;;;;;;;2.22;1.10;;;;;;;;;;2098113;28;20393;-58
2022/05/05 02:31:53;;;;;;;3.13;1.10;;;;;;;;;;2098315;28;20050;-58
2022/05/05 02:32:54;;;;;;;2.25;1.05;;;;;;;;;;2098050;28;20509;-58
2022/05/05 02:33:55;;;;;;;2.97;1.30;;;;;;;;;;2098128;28;20451;-57
2022/05/05 02:34:56;;;;;;;4.00;1.40;;;;;;;;;;2098095;28;20044;-59
2022/05/05 02:38:46;;;;;;;2.03;0.98;;;;;;;;;;2098032;28;20132;-58
2022/05/05 02:39:47;;;;;;;3.17;0.88;;;;;;;;;;2097995;28;20052;-58
2022/05/05 02:40:49;;;;;;;2.42;1.38;;;;;;;;;;2097980;28;20049;-58
2022/05/05 02:41:50;;;;;;;3.72;1.15;;;;;;;;;;2104279;28;20508;-57
2022/05/05 02:42:51;;;;;;;2.08;1.13;;;;;;;;;;2106465;28;20048;-58
2022/05/05 02:43:52;;;;;;;2.35;1.30;;;;;;;;;;2106188;28;20044;-58
2022/05/05 02:44:53;;;;;;;4.82;1.50;;;;;;;;;;2106248;28;20166;-58
2022/05/05 02:45:54;;;;;;;2.78;1.33;;;;;;;;;;2106344;28;20052;-57
2022/05/05 02:46:55;;;;;;;1.70;0.90;;;;;;;;;;2106220;28;20131;-57
2022/05/05 02:47:58;;;;;;;3.50;1.42;;;;;;;;;;2106367;28;20040;-58
2022/05/05 02:48:59;;;;;;;2.25;1.13;;;;;;;;;;2106131;28;20569;-58
2022/05/05 02:50:00;;;;;;;2.42;1.42;;;;;;;;;;2106230;28;20078;-58
2022/05/05 02:51:01;;;;;;;2.10;1.15;;;;;;;;;;2106467;28;20086;-58
2022/05/05 02:52:03;;;;;;;2.13;1.40;;;;;;;;;;2106312;28;20044;-58
2022/05/05 02:54:47;;;;;;;2.72;1.63;;;;;;;;;;2106317;28;20050;-58
2022/05/05 02:55:45;;;;;;;2.30;1.42;;;;;;;;;;2106249;28;20300;-58
2022/05/05 02:56:46;;;;;;;2.10;1.10;;;;;;;;;;2106086;28;20263;-58
2022/05/05 02:57:47;;;;;;;3.13;1.55;;;;;;;;;;2106316;28;20048;-58
2022/05/05 02:58:48;;;;;;;1.98;1.35;;;;;;;;;;2106152;28;20052;-58
2022/05/05 02:59:50;;;;;;;3.35;1.40;;;;;;;;;;2106134;28;20434;-58
2022/05/05 03:00:51;;;;;;;5.65;1.75;;;;;;;;;;2106394;28;20071;-58
2022/05/05 03:01:52;;;;;;;2.83;1.15;;;;;;;;;;2106316;28;20068;-57
2022/05/05 03:02:58;;;;;;;2.58;1.27;;;;;;;;;;2106285;28;20067;-58
2022/05/05 03:03:59;;;;;;;2.88;1.25;;;;;;;;;;2106286;28;20085;-57
2022/05/05 03:05:00;;;;;;;2.47;1.15;;;;;;;;;;2106187;28;20191;-58
2022/05/05 03:06:01;;;;;;;3.65;1.63;;;;;;;;;;2106113;28;20367;-58
2022/05/05 03:07:02;;;;;;;2.60;1.10;;;;;;;;;;2106170;28;20048;-58
2022/05/05 03:08:04;;;;;;;2.20;1.27;;;;;;;;;;2106245;28;20759;-58
2022/05/05 03:09:05;;;;;;;3.00;1.33;;;;;;;;;;2106148;28;20119;-57
2022/05/05 03:10:06;;;;;;;5.30;1.98;;;;;;;;;;2106075;28;20048;-58
2022/05/05 03:11:08;;;;;;;2.47;1.40;;;;;;;;;;2106085;28;20083;-57
2022/05/05 03:12:10;;;;;;;3.13;1.50;;;;;;;;;;2106236;28;20048;-58
2022/05/05 03:13:11;;;;;;;3.47;1.20;;;;;;;;;;2106167;28;20132;-58
2022/05/05 03:14:12;;;;;;;2.10;1.15;;;;;;;;;;2105487;28;20392;-58
2022/05/05 03:15:13;;;;;;;5.00;1.55;;;;;;;;;;2097734;28;20184;-57
2022/05/05 03:16:14;;;;;;;2.33;1.38;;;;;;;;;;2097618;28;20048;-57
2022/05/05 03:17:15;;;;;;;2.33;1.30;;;;;;;;;;2097718;28;20048;-57
2022/05/05 03:18:16;;;;;;;2.45;1.20;;;;;;;;;;2097756;28;20048;-57
2022/05/05 03:19:17;;;;;;;3.45;1.65;;;;;;;;;;2097557;28;20056;-57
2022/05/05 03:20:18;;;;;;;1.98;1.20;;;;;;;;;;2097948;28;20102;-47
2022/05/05 03:21:20;;;;;;;2.50;1.20;;;;;;;;;;2097735;28;20052;-47
2022/05/05 03:22:21;;;;;;;3.38;1.45;;;;;;;;;;2097748;28;20190;-47
2022/05/05 03:23:22;;;;;;;2.67;1.30;;;;;;;;;;2097723;28;20127;-47
2022/05/05 03:24:23;;;;;;;1.92;1.15;;;;;;;;;;2097738;28;20171;-47
2022/05/05 03:25:24;;;;;;;2.80;1.30;;;;;;;;;;2097595;28;20193;-46
2022/05/05 03:26:26;;;;;;;2.65;1.38;;;;;;;;;;2097741;28;20131;-47
2022/05/05 03:27:27;;;;;;;2.17;1.10;;;;;;;;;;2097847;28;20048;-47
2022/05/05 03:28:28;;;;;;;2.55;1.33;;;;;;;;;;2097605;28;20048;-47
2022/05/05 03:29:29;;;;;;;1.73;1.08;;;;;;;;;;2097649;28;20053;-47
2022/05/05 03:30:30;;;;;;;3.33;1.40;;;;;;;;;;2097751;28;20095;-47
2022/05/05 03:31:32;;;;;;;2.95;1.27;;;;;;;;;;2097607;28;20494;-47
2022/05/05 03:32:33;;;;;;;2.13;1.33;;;;;;;;;;2097727;28;20124;-48
2022/05/05 03:33:34;;;;;;;1.65;1.13;;;;;;;;;;2097569;28;20044;-47
2022/05/05 03:34:35;;;;;;;3.30;1.70;;;;;;;;;;2097747;28;20349;-48
2022/05/05 03:35:36;;;;;;;2.60;1.40;;;;;;;;;;2097720;28;20128;-48
2022/05/05 03:36:38;;;;;;;2.95;1.60;;;;;;;;;;2097532;28;20470;-47
2022/05/05 03:37:39;;;;;;;1.50;1.13;;;;;;;;;;2100481;28;20048;-48
2022/05/05 03:38:40;;;;;;;2.10;1.50;;;;;;;;;;2105873;28;20059;-47
2022/05/05 03:39:41;;;;;;;2.83;1.45;;;;;;;;;;2106011;28;20515;-49
2022/05/05 03:40:45;;;;;;;4.67;1.30;;;;;;;;;;2105908;28;20130;-47
2022/05/05 03:41:47;;;;;;;2.55;1.30;;;;;;;;;;2106012;28;20058;-48
2022/05/05 03:42:48;;;;;;;;;;;;;;;;;;2106367;28;20131;-47
2022/05/05 03:43:48;;;;;;;1.80;1.17;;;;;;;;;;2105749;28;19920;-47
2022/05/05 03:44:50;;;;;;;2.55;1.25;;;;;;;;;;2105818;28;20509;-48
2022/05/05 03:45:51;;;;;;;2.60;1.48;;;;;;;;;;2105994;28;20048;-47
2022/05/05 03:46:52;;;;;;;2.43;1.40;;;;;;;;;;2105888;28;20473;-48
2022/05/05 03:47:53;;;;;;;3.80;1.38;;;;;;;;;;2105804;28;20406;-47
2022/05/05 03:48:54;;;;;;;4.22;1.38;;;;;;;;;;2105880;28;20055;-47
2022/05/05 03:49:55;;;;;;;2.28;1.27;;;;;;;;;;2105755;28;20388;-46
2022/05/05 03:50:57;;;;;;;2.70;1.40;;;;;;;;;;2105936;28;20127;-47
2022/05/05 03:51:58;;;;;;;4.35;1.45;;;;;;;;;;2105850;28;20040;-47
2022/05/05 03:52:59;;;;;;;1.63;1.23;;;;;;;;;;2105993;28;20135;-47
2022/05/05 03:54:00;;;;;;;3.15;1.60;;;;;;;;;;2105702;28;20501;-48
2022/05/05 03:55:01;;;;;;;3.40;1.45;;;;;;;;;;2105938;28;20075;-48
2022/05/05 03:56:02;;;;;;;2.22;1.20;;;;;;;;;;2105717;28;20465;-48
2022/05/05 03:57:04;;;;;;;2.47;1.42;;;;;;;;;;2105681;28;20131;-47
2022/05/05 03:58:05;;;;;;;;;;;;;;;;;;2106385;28;20165;-47
2022/05/05 03:59:06;;;;;;;1.75;1.42;;;;;;;;;;2105679;28;20376;-47
2022/05/05 04:00:08;;;;;;;0.98;0.77;;;;;;;;;;2105972;28;20048;-47
2022/05/05 04:01:09;;;;;;;3.50;1.67;;;;;;;;;;2105781;28;20368;-47
2022/05/05 04:02:10;;;;;;;2.30;1.30;;;;;;;;;;2105720;28;20044;-47
2022/05/05 04:04:34;;;;;;;3.17;1.48;;;;;;;;;;2105722;28;20445;-47
2022/05/05 04:05:35;;;;;;;2.28;1.40;;;;;;;;;;2105726;28;20131;-47
2022/05/05 04:06:36;;;;;;;2.57;1.60;;;;;;;;;;2105875;28;20048;-47
2022/05/05 04:07:37;;;;;;;3.10;1.40;;;;;;;;;;2105671;28;20512;-46
2022/05/05 04:08:39;;;;;;;5.03;1.63;;;;;;;;;;2105716;28;20048;-48
2022/05/05 04:09:40;;;;;;;2.58;1.58;;;;;;;;;;2105870;28;20075;-47
2022/05/05 04:10:41;;;;;;;1.33;0.88;;;;;;;;;;2105680;28;20047;-47
2022/05/05 04:11:42;;;;;;;2.25;1.25;;;;;;;;;;2105656;28;20139;-48
2022/05/05 04:12:44;;;;;;;2.80;1.30;;;;;;;;;;2106051;28;20127;-58
2022/05/05 04:13:46;;;;;;;2.97;1.52;;;;;;;;;;2105728;28;20296;-58
2022/05/05 04:14:47;;;;;;;2.78;1.48;;;;;;;;;;2105877;28;20062;-58
2022/05/05 04:15:49;;;;;;;3.10;1.77;;;;;;;;;;2105875;28;20055;-58
2022/05/05 04:16:50;;;;;;;2.42;1.38;;;;;;;;;;2105651;28;20100;-58
2022/05/05 04:17:51;;;;;;;1.88;1.25;;;;;;;;;;2104969;28;20131;-58
2022/05/05 04:18:52;;;;;;;2.50;1.52;;;;;;;;;;2100963;28;20048;-58
2022/05/05 04:19:54;;;;;;;1.67;1.08;;;;;;;;;;2097176;28;20581;-58
2022/05/05 04:20:55;;;;;;;1.92;1.27;;;;;;;;;;2097232;28;20383;-58
2022/05/05 04:21:56;;;;;;;3.03;1.45;;;;;;;;;;2097319;28;20189;-58
2022/05/05 04:22:58;;;;;;;3.05;1.70;;;;;;;;;;2097227;28;20048;-58
2022/05/05 04:23:59;;;;;;;2.28;1.67;;;;;;;;;;2097428;28;20044;-58
2022/05/05 04:25:00;;;;;;;3.03;1.08;;;;;;;;;;2097659;28;20060;-58
2022/05/05 04:26:01;;;;;;;3.93;2.00;;;;;;;;;;2097250;28;20087;-59
2022/05/05 04:27:02;;;;;;;2.60;1.33;;;;;;;;;;2097302;28;20461;-58
2022/05/05 04:28:04;;;;;;;3.65;1.88;;;;;;;;;;2097253;28;20051;-58
2022/05/05 04:29:05;;;;;;;3.65;1.70;;;;;;;;;;2097244;28;20041;-58
2022/05/05 04:30:07;;;;;;;4.32;1.38;;;;;;;;;;2097563;28;20590;-47
2022/05/05 04:31:10;;;;;;;2.42;1.52;;;;;;;;;;2097248;28;20746;-47
2022/05/05 04:32:11;;;;;;;2.83;1.50;;;;;;;;;;2097321;28;20088;-47
2022/05/05 04:33:12;;;;;;;3.13;1.75;;;;;;;;;;2097348;28;20060;-47
2022/05/05 04:34:14;;;;;;;2.75;1.65;;;;;;;;;;2102586;28;20412;-48
2022/05/05 04:35:15;;;;;;;3.35;1.52;;;;;;;;;;2105690;28;20044;-50
2022/05/05 04:36:16;;;;;;;2.10;1.43;;;;;;;;;;2105911;28;20579;-47
2022/05/05 04:37:17;;;;;;;3.22;1.88;;;;;;;;;;2105658;28;20135;-47
2022/05/05 04:38:18;;;;;;;4.57;1.77;;;;;;;;;;2105686;28;20082;-48
2022/05/05 04:39:19;;;;;;;2.80;1.92;;;;;;;;;;2105530;28;20126;-47
2022/05/05 04:40:21;;;;;;;5.43;2.00;;;;;;;;;;2105709;28;20126;-47
2022/05/05 04:41:26;;;;;;;3.83;1.75;;;;;;;;;;2105817;28;20044;-47
2022/05/05 04:42:27;;;;;;;3.55;2.15;;;;;;;;;;2105611;28;20435;-48
2022/05/05 04:43:29;;;;;;;3.73;1.63;;;;;;;;;;2105455;28;20048;-47
2022/05/05 04:44:30;;;;;;;3.67;1.90;;;;;;;;;;2106080;28;20111;-58
2022/05/05 04:45:31;;;;;;;4.83;2.30;;;;;;;;;;2105744;28;20048;-47
2022/05/05 04:46:32;;;;;;;3.97;2.00;;;;;;;;;;2105615;28;20052;-48
2022/05/05 04:47:33;;;;;;;2.85;1.50;;;;;;;;;;2105890;28;20052;-58
2022/05/05 04:48:35;;;;;;;3.80;2.10;;;;;;;;;;2105443;28;20435;-58
2022/05/05 04:49:37;;;;;;;4.22;1.90;;;;;;;;;;2105453;28;20564;-58
2022/05/05 04:50:38;;;;;;;5.85;2.40;;;;;;;;;;2105495;28;20169;-58
2022/05/05 04:51:39;;;;;;;5.63;2.40;;;;;;;;;;2105637;28;20131;-58
2022/05/05 04:52:40;;;;;;;5.22;2.20;;;;;;;;;;2105458;28;20075;-58
2022/05/05 04:53:41;;;;;;;2.67;1.92;;;;;;;;;;2105523;28;20081;-58
2022/05/05 04:54:43;;;;;;;3.45;2.20;;;;;;;;;;2105557;28;20056;-59
2022/05/05 04:55:44;;;;;;;;;;;;;;;;;;2106017;28;20484;-58
2022/05/05 04:56:45;;;;;;;3.95;2.13;;;;;;;;;;2105475;28;19927;-58
2022/05/05 04:57:46;;;;;;;4.25;1.83;;;;;;;;;;2105549;28;20071;-58
2022/05/05 04:58:48;;;;;;;3.85;2.17;;;;;;;;;;2105762;28;20052;-47
2022/05/05 04:59:49;;;;;;;;;;;;;;;;;;2105849;28;20417;-49
2022/05/05 05:00:50;;;;;;;5.53;2.35;;;;;;;;;;2105648;28;20010;-47
2022/05/05 05:01:51;;;;;;;4.40;2.88;;;;;;;;;;2105428;28;20170;-49
2022/05/05 05:02:55;;;;;;;3.25;1.92;;;;;;;;;;2105508;28;20055;-47
2022/05/05 05:03:56;;;;;;;3.35;1.85;;;;;;;;;;2105435;28;20089;-49
2022/05/05 05:04:58;;;;;;;3.42;2.05;;;;;;;;;;2105512;28;20044;-47
2022/05/05 05:05:59;;;;;;;2.97;2.30;;;;;;;;;;2105481;28;20052;-48
2022/05/05 05:07:00;;;;;;;2.67;1.70;;;;;;;;;;2105362;28;20499;-49
2022/05/05 05:08:01;;;;;;;4.25;2.15;;;;;;;;;;2105587;28;20284;-59
2022/05/05 05:09:02;;;;;;;3.97;2.00;;;;;;;;;;2105481;28;20048;-58
2022/05/05 05:10:03;;;;;;;3.50;2.08;;;;;;;;;;2105440;28;20042;-58
2022/05/05 05:11:05;;;;;;;2.90;1.70;;;;;;;;;;2105300;28;20044;-58
2022/05/05 05:12:07;;;;;;;2.80;1.60;;;;;;;;;;2105390;28;20076;-58
2022/05/05 05:13:08;;;;;;;2.60;1.60;;;;;;;;;;2105345;28;20500;-59
2022/05/05 05:14:10;;;;;;;5.78;2.00;;;;;;;;;;2105403;28;20075;-59
2022/05/05 05:15:11;;;;;;;;;;;;;;;;;;2105829;28;20044;-59
2022/05/05 05:16:12;;;;;;;2.60;1.60;;;;;;;;;;2097375;28;19921;-58
2022/05/05 05:17:34;;;;;;;3.10;1.80;;;;;;;;;;2096840;28;20045;-59
2022/05/05 05:18:35;;;;;;;3.40;1.60;;;;;;;;;;2094980;28;20146;-49
2022/05/05 05:19:36;;;;;;;4.37;1.87;;;;;;;;;;2088655;28;20203;-47
2022/05/05 05:20:37;;;;;;;4.50;1.90;;;;;;;;;;2088799;28;20057;-47
2022/05/05 05:21:38;;;;;;;3.45;1.55;;;;;;;;;;2088766;28;20049;-48
2022/05/05 05:22:39;;;;;;;4.25;1.80;;;;;;;;;;2088801;28;20045;-48
2022/05/05 05:23:40;;;;;;;2.67;1.77;;;;;;;;;;2088644;28;20084;-48
2022/05/05 05:24:41;;;;;;;3.88;1.75;;;;;;;;;;2088606;28;20136;-47
2022/05/05 05:25:42;;;;;;;4.97;1.92;;;;;;;;;;2088804;28;20079;-47
2022/05/05 05:26:43;;;;;;;2.65;1.52;;;;;;;;;;2088670;28;20048;-47
2022/05/05 05:27:44;;;;;;;4.77;2.10;;;;;;;;;;2088696;28;20399;-48
2022/05/05 05:29:06;;;;;;;4.22;1.50;;;;;;;;;;2089087;28;20037;-59
2022/05/05 05:30:08;;;;;;;2.33;1.65;;;;;;;;;;2095331;28;20128;-59
2022/05/05 05:31:09;;;;;;;2.95;1.67;;;;;;;;;;2106893;28;20127;-47
2022/05/05 05:32:11;;;;;;;4.95;2.15;;;;;;;;;;2106801;28;20090;-47
2022/05/05 05:33:11;;;;;;;4.25;1.50;;;;;;;;;;2106694;28;20177;-47
2022/05/05 05:34:13;;;;;;;2.50;1.60;;;;;;;;;;2106723;28;20101;-49
2022/05/05 05:35:14;;;;;;;4.05;1.90;;;;;;;;;;2106846;28;20134;-49
2022/05/05 05:36:15;;;;;;;2.85;1.65;;;;;;;;;;2106900;28;20048;-49
2022/05/05 05:37:16;;;;;;;3.53;1.52;;;;;;;;;;2106799;28;20043;-47
2022/05/05 05:38:18;;;;;;;2.88;1.73;;;;;;;;;;2107030;28;20067;-59
2022/05/05 05:39:19;;;;;;;3.60;1.63;;;;;;;;;;2106746;28;20048;-59
2022/05/05 05:40:20;;;;;;;2.70;1.60;;;;;;;;;;2106657;28;20540;-59
2022/05/05 05:41:21;;;;;;;2.70;1.52;;;;;;;;;;2106834;28;20777;-59
2022/05/05 05:42:22;;;;;;;3.58;1.40;;;;;;;;;;2106859;28;20048;-48
2022/05/05 05:43:23;;;;;;;4.38;1.98;;;;;;;;;;2106878;28;20127;-47
2022/05/05 05:44:24;;;;;;;2.30;1.40;;;;;;;;;;2106576;28;20105;-50
2022/05/05 05:45:26;;;;;;;4.75;1.67;;;;;;;;;;2106637;28;20447;-47
2022/05/05 05:46:27;;;;;;;3.25;1.63;;;;;;;;;;2106648;28;20051;-47
2022/05/05 05:47:29;;;;;;;2.30;1.50;;;;;;;;;;2106726;28;20059;-48
2022/05/05 05:48:31;;;;;;;3.95;1.83;;;;;;;;;;2106515;28;20470;-46
2022/05/05 05:49:32;;;;;;;4.10;1.73;;;;;;;;;;2106604;28;20502;-48
2022/05/05 05:50:33;;;;;;;3.80;1.48;;;;;;;;;;2106563;28;20482;-47
2022/05/05 05:51:35;;;;;;;2.90;1.50;;;;;;;;;;2106561;28;20561;-47
2022/05/05 05:52:36;;;;;;;3.08;1.30;;;;;;;;;;2106573;28;20485;-47
2022/05/05 05:53:37;;;;;;;2.42;1.38;;;;;;;;;;2106437;28;20476;-47
2022/05/05 05:54:38;;;;;;;2.67;1.60;;;;;;;;;;2106929;28;20131;-59
2022/05/05 05:55:39;;;;;;;2.17;1.20;;;;;;;;;;2106706;28;20062;-59
2022/05/05 05:56:40;;;;;;;2.65;1.27;;;;;;;;;;2106560;28;20093;-59
2022/05/05 05:57:41;;;;;;;4.18;1.55;;;;;;;;;;2106595;28;20051;-59
2022/05/05 05:58:43;;;;;;;1.95;1.13;;;;;;;;;;2106801;28;20123;-47
2022/05/05 05:59:44;;;;;;;2.75;1.23;;;;;;;;;;2106490;28;20490;-48
2022/05/05 06:00:46;;;;;;;4.80;1.20;;;;;;;;;;2106798;28;20386;-46
2022/05/05 06:04:37;;;;;;;2.05;1.10;;;;;;;;;;2088830;28;20483;-47
2022/05/05 06:05:38;;;;;;;2.78;1.23;;;;;;;;;;2088812;28;20450;-46
2022/05/05 06:06:41;;;;;;;2.13;1.00;;;;;;;;;;2088968;28;20049;-47
2022/05/05 06:07:42;;;;;;;1.67;1.00;;;;;;;;;;2106415;28;20122;-48
2022/05/05 06:08:44;;;;;;;1.57;0.93;;;;;;;;;;2106533;28;20079;-46
2022/05/05 06:09:45;;;;;;;2.17;1.10;;;;;;;;;;2106541;28;20580;-49
2022/05/05 06:10:46;;;;;;;2.83;1.00;;;;;;;;;;2106667;28;20075;-47
2022/05/05 06:11:48;;;;;;;3.45;1.48;;;;;;;;;;2104127;28;20127;-46
2022/05/05 06:12:49;;;;;;;3.80;1.38;;;;;;;;;;2098344;28;20624;-47
2022/05/05 06:13:50;;;;;;;1.33;1.00;;;;;;;;;;2098299;28;20041;-59
2022/05/05 06:14:51;;;;;;;2.17;1.17;;;;;;;;;;2098049;28;20545;-59
2022/05/05 06:15:53;;;;;;;2.00;1.00;;;;;;;;;;2098352;28;20489;-59
2022/05/05 06:16:54;;;;;;;3.17;1.20;;;;;;;;;;2098287;28;20132;-48
2022/05/05 06:17:56;;;;;;;2.10;1.10;;;;;;;;;;2098259;28;20048;-48
2022/05/05 06:18:57;;;;;;;2.28;1.35;;;;;;;;;;2093052;28;20091;-47
2022/05/05 06:19:58;;;;;;;2.38;1.10;;;;;;;;;;2089663;28;20455;-49
2022/05/05 06:20:59;;;;;;;2.40;1.23;;;;;;;;;;2089913;28;20065;-47
2022/05/05 06:22:00;;;;;;;1.98;0.90;;;;;;;;;;2089979;28;20071;-48
2022/05/05 06:23:01;;;;;;;1.53;1.00;;;;;;;;;;2089716;28;20041;-48
2022/05/05 06:24:04;;;;;;;1.58;0.88;;;;;;;;;;2089895;28;20131;-48
2022/05/05 06:25:04;;;;;;;;;;;;;;;;;;2090622;28;20075;-59
2022/05/05 06:26:05;;;;;;;2.03;1.08;;;;;;;;;;2090394;28;19921;-60
2022/05/05 06:27:06;;;;;;;1.80;1.20;;;;;;;;;;2106427;28;20123;-60